Time;durP1;ratioP1;P1;durP2;ratioP2;P2;SDS_P1;SDS_P2;PMS_P1;PMS_P2;Temp;Humidity;BMP_temperature;BMP_pressure;BME280_temperature;BME280_humidity;BME280_pressure;Samples;Min_cycle;Max_cycle;Signal;HPM_P1;HPM_P2
2023/06/11 00:00:28;;;;;;;2.60;2.40;;;25.30;54.30;;;;;;222519;1268;22567;-52
2023/06/11 00:05:52;;;;;;;2.40;2.30;;;25.20;54.30;;;;;;222524;1268;25405;-54
2023/06/11 00:10:56;;;;;;;2.70;2.50;;;25.20;54.30;;;;;;222573;1267;22515;-54
2023/06/11 00:16:01;;;;;;;2.40;2.20;;;25.20;54.30;;;;;;222404;1268;24335;-54
2023/06/11 00:21:05;;;;;;;3.10;2.60;;;25.20;54.30;;;;;;222585;1268;23723;-54
2023/06/11 00:26:10;;;;;;;2.80;2.60;;;25.20;54.30;;;;;;222561;1262;22514;-54
2023/06/11 00:31:15;;;;;;;2.30;2.20;;;25.20;54.20;;;;;;222489;1268;23922;-57
2023/06/11 00:36:20;;;;;;;2.50;2.30;;;25.20;54.20;;;;;;222539;1267;25317;-54
2023/06/11 00:41:25;;;;;;;2.30;2.20;;;25.20;54.30;;;;;;222389;1268;25398;-54
2023/06/11 00:46:31;;;;;;;2.40;2.30;;;25.20;54.20;;;;;;222632;1268;23905;-52
2023/06/11 00:51:36;;;;;;;2.40;2.30;;;25.20;54.10;;;;;;222534;1268;22508;-55
2023/06/11 00:56:41;;;;;;;1.90;1.80;;;25.30;54.00;;;;;;222592;1268;24086;-52
2023/06/11 01:02:05;;;;;;;2.00;1.90;;;25.30;54.00;;;;;;222287;1268;22509;-54
2023/06/11 01:07:13;;;;;;;2.10;2.00;;;25.20;54.00;;;;;;222448;1267;22507;-52
2023/06/11 01:12:17;;;;;;;2.50;2.30;;;25.30;54.20;;;;;;222830;1268;24763;-52
2023/06/11 01:17:29;;;;;;;2.00;1.90;;;25.30;54.10;;;;;;222417;1266;22495;-56
2023/06/11 01:22:33;;;;;;;2.50;2.30;;;25.10;54.00;;;;;;222451;1268;25384;-58
2023/06/11 01:28:06;;;;;;;2.10;2.00;;;25.20;54.00;;;;;;222844;1264;23884;-54
2023/06/11 01:33:10;;;;;;;2.00;1.90;;;25.20;53.90;;;;;;222913;1268;22680;-54
2023/06/11 01:38:21;;;;;;;2.10;2.00;;;25.20;54.30;;;;;;222624;1268;25400;-55
2023/06/11 01:43:30;;;;;;;2.10;2.00;;;25.10;53.90;;;;;;222618;1266;22634;-54
2023/06/11 01:48:35;;;;;;;2.20;2.10;;;25.10;53.90;;;;;;222614;1268;22507;-54
2023/06/11 01:53:41;;;;;;;2.30;2.20;;;25.10;53.90;;;;;;222906;1268;22523;-52
2023/06/11 01:58:47;;;;;;;2.10;2.00;;;25.10;53.50;;;;;;222358;1268;24180;-55
2023/06/11 02:03:51;;;;;;;2.70;2.50;;;25.10;53.90;;;;;;222219;1268;22586;-55
2023/06/11 02:08:55;;;;;;;2.60;2.40;;;25.10;54.40;;;;;;222572;1266;24311;-57
2023/06/11 02:14:00;;;;;;;2.30;2.20;;;25.10;53.90;;;;;;222161;1268;325487;-52
2023/06/11 02:19:04;;;;;;;2.10;2.00;;;25.10;53.90;;;;;;222342;1268;22516;-54
2023/06/11 02:24:09;;;;;;;2.70;2.50;;;25.10;53.90;;;;;;222440;1268;25310;-52
2023/06/11 02:29:13;;;;;;;2.40;2.30;;;25.10;53.90;;;;;;222364;1268;22521;-55
2023/06/11 02:34:17;;;;;;;2.10;2.00;;;25.10;53.90;;;;;;222521;1268;22527;-54
2023/06/11 02:39:22;;;;;;;2.60;2.50;;;25.10;53.90;;;;;;222620;1268;22507;-55
2023/06/11 02:44:26;;;;;;;2.20;2.00;;;25.00;54.30;;;;;;222812;1267;22634;-54
2023/06/11 02:49:30;;;;;;;2.00;1.90;;;25.00;53.90;;;;;;222624;1268;25207;-53
2023/06/11 02:54:34;;;;;;;2.30;2.20;;;24.90;54.00;;;;;;222436;1268;25537;-54
2023/06/11 02:59:39;;;;;;;2.50;2.30;;;24.90;54.00;;;;;;222388;1268;22512;-52
2023/06/11 03:04:43;;;;;;;2.60;2.40;;;25.10;54.00;;;;;;222224;1268;22505;-53
2023/06/11 03:09:47;;;;;;;2.40;2.30;;;25.00;54.00;;;;;;222512;1268;25316;-54
2023/06/11 03:14:52;;;;;;;2.50;2.30;;;24.90;54.00;;;;;;222629;1268;24193;-52
2023/06/11 03:19:57;;;;;;;2.70;2.50;;;24.90;54.10;;;;;;222525;1268;23559;-53
2023/06/11 03:25:01;;;;;;;2.70;2.50;;;24.90;54.10;;;;;;222683;1268;24194;-51
2023/06/11 03:30:11;;;;;;;2.10;2.00;;;24.90;54.10;;;;;;222352;1262;22504;-55
2023/06/11 03:35:16;;;;;;;2.20;2.10;;;24.90;54.10;;;;;;222384;1246;24201;-53
2023/06/11 03:40:22;;;;;;;2.30;2.20;;;24.90;54.20;;;;;;222819;1268;25228;-53
2023/06/11 03:45:27;;;;;;;2.80;2.60;;;24.90;54.20;;;;;;222383;1268;22649;-53
2023/06/11 03:50:32;;;;;;;2.60;2.50;;;24.90;54.20;;;;;;222471;1268;22641;-51
2023/06/11 03:55:37;;;;;;;1.90;1.80;;;24.90;54.10;;;;;;222615;1266;22638;-53
2023/06/11 04:00:42;;;;;;;2.30;2.20;;;24.90;54.10;;;;;;222715;1249;22563;-51
2023/06/11 04:05:46;;;;;;;2.10;2.00;;;24.90;54.40;;;;;;222320;1268;22617;-53
2023/06/11 04:10:51;;;;;;;2.00;1.90;;;24.90;53.90;;;;;;222559;1267;22505;-55
2023/06/11 04:15:55;;;;;;;2.30;2.20;;;24.90;54.00;;;;;;223046;1268;24173;-54
2023/06/11 04:21:00;;;;;;;2.50;2.40;;;24.90;53.90;;;;;;222449;1268;24215;-53
2023/06/11 04:26:07;;;;;;;2.40;2.30;;;24.90;54.00;;;;;;222552;1268;26169;-54
2023/06/11 04:31:14;;;;;;;2.40;2.30;;;24.90;54.10;;;;;;222779;1268;22524;-52
2023/06/11 04:36:24;;;;;;;2.30;2.10;;;24.90;54.30;;;;;;222283;1268;24547;-54
2023/06/11 04:41:31;;;;;;;2.40;2.30;;;24.90;54.10;;;;;;222791;1266;24039;-53
2023/06/11 04:46:35;;;;;;;2.00;1.90;;;24.90;54.00;;;;;;222413;1268;24320;-54
2023/06/11 04:51:42;;;;;;;2.40;2.30;;;24.90;53.90;;;;;;222496;1268;25322;-50
2023/06/11 04:56:46;;;;;;;2.50;2.30;;;24.90;53.90;;;;;;222491;1268;24145;-51
2023/06/11 05:01:53;;;;;;;2.60;2.40;;;24.90;53.90;;;;;;222167;1269;24186;-54
2023/06/11 05:07:03;;;;;;;2.30;2.20;;;24.90;53.90;;;;;;222105;1269;25347;-53
2023/06/11 05:12:08;;;;;;;2.30;2.20;;;24.90;54.00;;;;;;222118;1269;22585;-54
2023/06/11 05:17:15;;;;;;;2.20;2.10;;;24.80;54.00;;;;;;222180;1269;22996;-51
2023/06/11 05:22:23;;;;;;;2.50;2.30;;;24.80;54.00;;;;;;222263;1269;22634;-51
2023/06/11 05:27:28;;;;;;;2.30;2.20;;;24.80;54.10;;;;;;222195;1269;24227;-56
2023/06/11 05:32:37;;;;;;;2.60;2.50;;;24.80;54.00;;;;;;222672;1266;22511;-53
2023/06/11 05:37:42;;;;;;;2.70;2.50;;;24.80;54.10;;;;;;223127;1265;23197;-53
2023/06/11 05:42:47;;;;;;;2.20;2.10;;;24.80;54.00;;;;;;222555;1268;24410;-53
2023/06/11 05:47:52;;;;;;;2.20;2.10;;;24.80;53.90;;;;;;222636;1268;25269;-56
2023/06/11 05:52:56;;;;;;;2.50;2.40;;;24.90;53.90;;;;;;222414;1268;25204;-57
2023/06/11 05:58:01;;;;;;;2.20;2.10;;;24.90;54.00;;;;;;222439;1268;26692;-54
2023/06/11 06:03:05;;;;;;;2.80;2.60;;;24.90;54.00;;;;;;222550;1268;22627;-54
2023/06/11 06:08:11;;;;;;;2.70;2.50;;;24.90;54.00;;;;;;222900;1265;24189;-56
2023/06/11 06:13:15;;;;;;;2.50;2.40;;;24.90;53.80;;;;;;222857;1268;24178;-52
2023/06/11 06:18:20;;;;;;;2.10;2.00;;;24.90;53.80;;;;;;222605;1268;25409;-52
2023/06/11 06:23:25;;;;;;;3.00;2.80;;;25.00;53.80;;;;;;222394;1265;22647;-54
2023/06/11 06:28:37;;;;;;;2.40;2.20;;;25.00;53.80;;;;;;222575;1268;22730;-56
2023/06/11 06:33:42;;;;;;;2.40;2.30;;;24.90;53.80;;;;;;222550;1267;22534;-53
2023/06/11 06:38:47;;;;;;;2.50;2.40;;;25.00;54.10;;;;;;222470;1268;22640;-56
2023/06/11 06:43:52;;;;;;;2.20;2.10;;;25.00;53.60;;;;;;222650;1267;22623;-55
2023/06/11 06:48:58;;;;;;;2.40;2.30;;;25.10;53.70;;;;;;222456;1268;23150;-54
2023/06/11 06:54:03;;;;;;;2.80;2.60;;;25.10;53.50;;;;;;222353;1261;22634;-54
2023/06/11 06:59:07;;;;;;;2.50;2.30;;;25.10;53.50;;;;;;222782;1268;22516;-53
2023/06/11 07:04:13;;;;;;;2.40;2.30;;;25.10;53.80;;;;;;222345;1254;25373;-52
2023/06/11 07:09:18;;;;;;;2.60;2.40;;;25.10;53.50;;;;;;222646;1268;22522;-54
2023/06/11 07:14:24;;;;;;;2.40;2.30;;;25.10;53.80;;;;;;222440;1268;24189;-54
2023/06/11 07:19:29;;;;;;;2.30;2.20;;;25.20;53.40;;;;;;222604;1268;22634;-53
2023/06/11 07:24:35;;;;;;;2.50;2.30;;;25.20;53.30;;;;;;222564;1268;22515;-57
2023/06/11 07:29:40;;;;;;;2.80;2.60;;;25.20;53.60;;;;;;223029;1268;22516;-51
2023/06/11 07:34:44;;;;;;;2.40;2.30;;;25.20;53.20;;;;;;222674;1268;23905;-53
2023/06/11 07:39:49;;;;;;;2.40;2.30;;;25.30;53.30;;;;;;222767;1266;25364;-51
2023/06/11 07:44:56;;;;;;;2.10;2.00;;;25.20;53.40;;;;;;222835;1268;25366;-55
2023/06/11 07:50:01;;;;;;;2.40;2.20;;;25.20;53.30;;;;;;222604;1268;22631;-52
2023/06/11 07:55:06;;;;;;;2.40;2.30;;;25.30;53.20;;;;;;222422;1268;24203;-55
2023/06/11 08:00:12;;;;;;;2.40;2.30;;;25.30;53.10;;;;;;222631;1268;24291;-54
2023/06/11 08:05:18;;;;;;;2.60;2.40;;;25.30;53.20;;;;;;222839;1265;25824;-54
2023/06/11 08:10:22;;;;;;;2.40;2.30;;;25.40;53.10;;;;;;222619;1268;24296;-54
2023/06/11 08:15:26;;;;;;;2.40;2.30;;;25.40;53.10;;;;;;222508;1268;24041;-53
2023/06/11 08:20:31;;;;;;;2.50;2.30;;;25.40;53.10;;;;;;222298;1268;24288;-54
2023/06/11 08:25:36;;;;;;;2.10;2.00;;;25.50;53.00;;;;;;222333;1268;24298;-54
2023/06/11 08:30:40;;;;;;;2.70;2.50;;;25.50;53.00;;;;;;222565;1263;23007;-58
2023/06/11 08:35:44;;;;;;;2.30;2.20;;;25.50;53.10;;;;;;222084;1269;22514;-56
2023/06/11 08:40:49;;;;;;;2.10;2.00;;;25.40;53.40;;;;;;222137;1269;24153;-52
2023/06/11 08:45:53;;;;;;;2.00;1.90;;;25.50;53.10;;;;;;222091;1269;24173;-54
2023/06/11 08:51:01;;;;;;;2.30;2.20;;;25.40;53.30;;;;;;221997;1269;24175;-52
2023/06/11 08:56:06;;;;;;;2.60;2.40;;;25.50;53.20;;;;;;222237;1268;22626;-52
2023/06/11 09:01:11;;;;;;;2.30;2.20;;;25.50;53.50;;;;;;222292;1268;22550;-55
2023/06/11 09:06:15;;;;;;;3.00;2.80;;;25.50;53.50;;;;;;222244;1269;24283;-54
2023/06/11 09:11:20;;;;;;;2.40;2.30;;;25.50;53.00;;;;;;222315;1269;22574;-54
2023/06/11 09:16:24;;;;;;;2.60;2.40;;;25.60;53.30;;;;;;221976;1269;24216;-52
2023/06/11 09:21:29;;;;;;;2.30;2.20;;;25.60;53.10;;;;;;222233;1269;24230;-54
2023/06/11 09:26:33;;;;;;;2.80;2.70;;;25.50;53.10;;;;;;222333;1269;23890;-50
2023/06/11 09:31:39;;;;;;;2.50;2.30;;;25.50;53.20;;;;;;222145;1269;22528;-53
2023/06/11 09:36:47;;;;;;;2.50;2.40;;;25.50;53.20;;;;;;222418;1269;24675;-51
2023/06/11 09:41:52;;;;;;;2.20;2.10;;;25.60;53.10;;;;;;222519;1269;22518;-54
2023/06/11 09:46:56;;;;;;;2.60;2.40;;;25.60;53.50;;;;;;222164;1269;24320;-51
2023/06/11 09:52:02;;;;;;;2.50;2.40;;;25.60;53.20;;;;;;222308;1269;22624;-53
2023/06/11 09:57:09;;;;;;;2.70;2.40;;;25.70;53.00;;;;;;222276;1269;24892;-55
2023/06/11 10:02:14;;;;;;;2.40;2.30;;;25.70;53.00;;;;;;222555;1268;23879;-50
2023/06/11 10:07:22;;;;;;;2.30;2.20;;;25.70;53.00;;;;;;222777;1266;22457;-56
2023/06/11 10:12:32;;;;;;;2.60;2.40;;;25.70;53.30;;;;;;222682;1245;24206;-53
2023/06/11 10:17:36;;;;;;;2.50;2.40;;;25.70;53.00;;;;;;222901;1268;24215;-52
2023/06/11 10:22:42;;;;;;;2.80;2.60;;;25.70;53.00;;;;;;222431;1268;23389;-53
2023/06/11 10:27:47;;;;;;;2.60;2.40;;;25.80;53.00;;;;;;222872;1268;25447;-53
2023/06/11 10:32:53;;;;;;;2.10;2.00;;;25.70;52.90;;;;;;222422;1264;24202;-52
2023/06/11 10:38:04;;;;;;;2.40;2.30;;;25.80;53.00;;;;;;222352;1267;25381;-58
2023/06/11 10:43:23;;;;;;;2.20;2.10;;;25.70;53.00;;;;;;222538;1266;22514;-52
2023/06/11 10:48:31;;;;;;;2.50;2.40;;;25.70;53.00;;;;;;222443;1269;22604;-51
2023/06/11 10:53:40;;;;;;;2.30;2.20;;;25.70;53.00;;;;;;222258;1253;24231;-52
2023/06/11 10:58:49;;;;;;;3.30;3.00;;;25.70;53.00;;;;;;222377;1269;22518;-49
2023/06/11 11:03:54;;;;;;;2.60;2.50;;;25.80;53.30;;;;;;222675;1246;24232;-53
2023/06/11 11:08:59;;;;;;;2.70;2.60;;;25.80;52.90;;;;;;222383;1269;23915;-53
2023/06/11 11:14:03;;;;;;;2.20;2.10;;;25.90;52.90;;;;;;222478;1269;22539;-54
2023/06/11 11:19:08;;;;;;;2.40;2.30;;;25.90;53.30;;;;;;222381;1269;24264;-53
2023/06/11 11:24:12;;;;;;;2.40;2.30;;;25.90;53.00;;;;;;222414;1267;23891;-50
2023/06/11 11:29:17;;;;;;;2.80;2.60;;;25.90;52.90;;;;;;222351;1269;24207;-54
2023/06/11 11:34:27;;;;;;;2.60;2.40;;;25.90;52.90;;;;;;222677;1268;26739;-56
2023/06/11 11:39:36;;;;;;;2.30;2.20;;;25.90;52.90;;;;;;222702;1253;24193;-52
2023/06/11 11:44:41;;;;;;;2.30;2.20;;;26.00;52.90;;;;;;222813;1268;22584;-55
2023/06/11 11:49:56;;;;;;;2.20;2.10;;;25.90;53.20;;;;;;222961;1268;22559;-52
2023/06/11 11:55:00;;;;;;;2.30;2.20;;;26.00;52.80;;;;;;222499;1268;23187;-55
2023/06/11 12:00:06;;;;;;;2.20;2.10;;;26.00;52.80;;;;;;222362;1268;25214;-52
2023/06/11 12:05:13;;;;;;;2.10;2.00;;;26.00;52.90;;;;;;222574;1268;25384;-51
2023/06/11 12:10:18;;;;;;;2.40;2.20;;;26.00;52.80;;;;;;222715;1268;22794;-52
2023/06/11 12:15:26;;;;;;;2.70;2.50;;;26.00;52.80;;;;;;222736;1268;23200;-54
2023/06/11 12:20:31;;;;;;;2.40;2.30;;;26.10;52.80;;;;;;222687;1268;22522;-54
2023/06/11 12:25:35;;;;;;;2.20;2.10;;;26.10;53.20;;;;;;222508;1246;24232;-52
2023/06/11 12:30:42;;;;;;;2.20;2.10;;;26.10;52.70;;;;;;222639;1268;22520;-53
2023/06/11 12:35:47;;;;;;;2.20;2.10;;;26.10;53.10;;;;;;222379;1269;24267;-53
2023/06/11 12:40:52;;;;;;;2.40;2.20;;;26.10;52.80;;;;;;222275;1269;24352;-52
2023/06/11 12:45:56;;;;;;;2.10;2.00;;;26.10;52.80;;;;;;222414;1269;22521;-55
2023/06/11 12:51:00;;;;;;;2.00;1.90;;;26.10;52.70;;;;;;222376;1267;22614;-56
2023/06/11 12:56:05;;;;;;;2.20;2.10;;;26.10;53.00;;;;;;222051;1269;22515;-55
2023/06/11 13:01:09;;;;;;;2.30;2.20;;;26.10;52.80;;;;;;222045;1269;25210;-56
2023/06/11 13:06:13;;;;;;;2.00;1.90;;;26.10;52.80;;;;;;222300;1269;22664;-56
2023/06/11 13:11:18;;;;;;;2.10;2.00;;;26.10;53.10;;;;;;222339;1253;24273;-52
2023/06/11 13:16:22;;;;;;;2.10;2.00;;;26.10;52.80;;;;;;222216;1269;24231;-51
2023/06/11 13:21:27;;;;;;;3.40;2.20;;;26.20;52.80;;;;;;222250;1263;23713;-48
2023/06/11 13:26:34;;;;;;;3.80;3.10;;;26.20;52.80;;;;;;222660;1256;24170;-44
2023/06/11 13:31:39;;;;;;;3.30;3.10;;;26.10;48.00;;;;;;222477;1265;24236;-46
2023/06/11 13:36:44;;;;;;;7.80;3.40;;;26.00;45.40;;;;;;222528;1268;22600;-44
2023/06/11 13:41:49;;;;;;;6.90;3.40;;;26.00;43.40;;;;;;222907;1263;24248;-43
2023/06/11 13:46:53;;;;;;;4.60;3.70;;;26.10;46.10;;;;;;222639;1268;26502;-48
2023/06/11 13:51:58;;;;;;;6.10;2.80;;;26.00;43.70;;;;;;222399;1268;22516;-46
2023/06/11 13:57:03;;;;;;;5.80;3.40;;;25.90;41.60;;;;;;222222;1268;25594;-44
2023/06/11 14:02:10;;;;;;;6.00;3.30;;;25.80;40.50;;;;;;222312;1261;24183;-46
2023/06/11 14:07:18;;;;;;;9.50;3.70;;;25.80;39.80;;;;;;222031;1257;22579;-53
2023/06/11 14:12:23;;;;;;;9.00;3.50;;;25.80;39.90;;;;;;222153;1264;179566;-47
2023/06/11 14:17:28;;;;;;;4.70;3.40;;;25.80;39.30;;;;;;222385;1269;23011;-47
2023/06/11 14:22:32;;;;;;;6.50;3.20;;;25.70;39.30;;;;;;224670;1269;22602;-56
2023/06/11 14:27:37;;;;;;;4.30;3.40;;;25.60;39.70;;;;;;222118;1264;24340;-52
2023/06/11 14:32:41;;;;;;;3.90;3.30;;;25.50;38.30;;;;;;222678;1268;25269;-53
2023/06/11 14:37:48;;;;;;;9.10;3.60;;;25.50;38.30;;;;;;222364;1262;25584;-53
2023/06/11 14:42:53;;;;;;;3.20;2.90;;;25.60;38.60;;;;;;222375;1246;23210;-54
2023/06/11 14:47:57;;;;;;;4.20;3.50;;;25.70;38.30;;;;;;222092;1257;25479;-49
2023/06/11 14:53:02;;;;;;;5.80;3.10;;;25.70;38.20;;;;;;222979;1268;24167;-48
2023/06/11 14:58:06;;;;;;;6.70;3.10;;;25.60;38.20;;;;;;222437;1268;24226;-47
2023/06/11 15:03:11;;;;;;;5.70;2.90;;;25.70;38.10;;;;;;222573;1268;23848;-51
2023/06/11 15:08:16;;;;;;;5.80;4.10;;;25.80;38.20;;;;;;222782;1249;23007;-46
2023/06/11 15:13:20;;;;;;;7.70;3.60;;;25.80;38.30;;;;;;222526;1268;26494;-56
2023/06/11 15:18:24;;;;;;;3.60;2.80;;;25.80;38.30;;;;;;222947;1253;24238;-56
2023/06/11 15:23:29;;;;;;;11.80;3.40;;;25.70;38.00;;;;;;223247;1263;22813;-50
2023/06/11 15:28:33;;;;;;;5.10;2.60;;;25.70;36.00;;;;;;222868;1269;25520;-55
2023/06/11 15:33:37;;;;;;;3.30;2.70;;;25.70;36.20;;;;;;222927;1262;22539;-50
2023/06/11 15:38:42;;;;;;;3.70;2.30;;;25.70;36.60;;;;;;222579;1268;22519;-49
2023/06/11 15:43:46;;;;;;;3.50;2.60;;;25.60;35.80;;;;;;222352;1261;22521;-48
2023/06/11 15:48:50;;;;;;;5.50;2.60;;;25.50;35.90;;;;;;222562;1264;24342;-45
2023/06/11 15:53:55;;;;;;;3.10;2.60;;;25.60;36.30;;;;;;224000;1259;22659;-46
2023/06/11 15:58:59;;;;;;;3.90;2.60;;;25.50;36.00;;;;;;222494;1259;24371;-47
2023/06/11 16:04:03;;;;;;;8.90;2.80;;;25.60;36.00;;;;;;222157;1254;24260;-44
2023/06/11 16:09:08;;;;;;;5.70;2.80;;;25.50;34.40;;;;;;222751;1255;24183;-48
2023/06/11 16:14:14;;;;;;;9.90;2.70;;;25.40;34.00;;;;;;222515;1267;22979;-46
2023/06/11 16:19:20;;;;;;;6.00;2.00;;;25.50;34.00;;;;;;222344;1254;25255;-46
2023/06/11 16:24:24;;;;;;;2.60;2.10;;;25.50;34.00;;;;;;222532;1268;22556;-47
2023/06/11 16:29:31;;;;;;;3.90;2.10;;;25.50;36.00;;;;;;222901;1265;24218;-47
2023/06/11 16:34:37;;;;;;;6.30;2.10;;;25.50;35.40;;;;;;222410;1254;22647;-49
2023/06/11 16:39:43;;;;;;;3.20;2.00;;;25.40;34.90;;;;;;222921;1267;22527;-49
2023/06/11 16:44:49;;;;;;;5.20;2.30;;;25.40;36.70;;;;;;222517;1267;24168;-50
2023/06/11 16:49:58;;;;;;;4.60;2.20;;;25.40;35.20;;;;;;222498;1262;22542;-44
2023/06/11 16:55:05;;;;;;;3.80;2.20;;;25.40;34.30;;;;;;222742;1257;25439;-50
2023/06/11 17:00:10;;;;;;;4.40;2.10;;;25.50;33.90;;;;;;222717;1260;22585;-49
2023/06/11 17:05:15;;;;;;;3.30;1.90;;;25.40;33.50;;;;;;222734;1264;23910;-49
2023/06/11 17:10:19;;;;;;;5.40;2.20;;;25.40;33.50;;;;;;222420;1263;25243;-45
2023/06/11 17:15:23;;;;;;;7.20;1.90;;;25.50;32.90;;;;;;222286;1256;25468;-47
2023/06/11 17:20:27;;;;;;;2.10;1.70;;;25.40;33.20;;;;;;222382;1253;25314;-45
2023/06/11 17:25:32;;;;;;;2.40;2.20;;;25.50;32.80;;;;;;222557;1253;22582;-47
2023/06/11 17:30:37;;;;;;;9.20;1.70;;;25.60;32.60;;;;;;222601;1263;22774;-46
2023/06/11 17:35:41;;;;;;;7.50;2.30;;;25.70;33.30;;;;;;222668;1264;22508;-42
2023/06/11 17:40:45;;;;;;;7.50;2.00;;;25.70;33.20;;;;;;222830;1265;22526;-44
2023/06/11 17:45:50;;;;;;;6.30;2.20;;;25.50;33.10;;;;;;222405;1256;22513;-45
2023/06/11 17:50:54;;;;;;;4.80;2.20;;;25.50;33.70;;;;;;222702;1264;23913;-45
2023/06/11 17:55:58;;;;;;;8.00;2.20;;;25.50;33.90;;;;;;222284;1267;22507;-54
2023/06/11 18:01:04;;;;;;;2.40;2.00;;;25.40;34.40;;;;;;222705;1260;23914;-48
2023/06/11 18:06:08;;;;;;;6.30;2.30;;;25.30;34.70;;;;;;222777;1266;22508;-45
2023/06/11 18:11:12;;;;;;;3.60;1.90;;;25.40;37.90;;;;;;222571;1267;22535;-45
2023/06/11 18:16:17;;;;;;;6.40;2.20;;;25.20;41.40;;;;;;222521;1262;25461;-47
2023/06/11 18:21:21;;;;;;;13.80;2.60;;;25.10;40.50;;;;;;222473;1255;24271;-45
2023/06/11 18:26:26;;;;;;;7.20;2.40;;;25.00;40.50;;;;;;222636;1262;22662;-50
2023/06/11 18:31:30;;;;;;;7.10;2.10;;;25.10;40.70;;;;;;222635;1254;22508;-51
2023/06/11 18:36:35;;;;;;;5.30;2.30;;;25.00;40.10;;;;;;222285;1265;22520;-47
2023/06/11 18:41:40;;;;;;;8.50;2.50;;;24.90;40.20;;;;;;222717;1264;23935;-47
2023/06/11 18:46:44;;;;;;;11.00;2.10;;;24.70;40.30;;;;;;222634;1252;25586;-50
2023/06/11 18:51:49;;;;;;;8.40;3.30;;;24.60;40.50;;;;;;222342;1265;24360;-47
2023/06/11 18:56:53;;;;;;;4.30;2.00;;;24.70;41.50;;;;;;223351;1265;25566;-47
2023/06/11 19:01:58;;;;;;;4.70;1.90;;;24.50;42.00;;;;;;222421;1246;25604;-47
2023/06/11 19:07:03;;;;;;;3.90;1.70;;;24.30;41.20;;;;;;222614;1265;23909;-47
2023/06/11 19:12:09;;;;;;;2.50;2.20;;;24.20;41.20;;;;;;222734;1253;24289;-45
2023/06/11 19:17:14;;;;;;;5.10;2.10;;;24.10;42.00;;;;;;222668;1262;22540;-47
2023/06/11 19:22:18;;;;;;;3.80;2.60;;;24.30;42.00;;;;;;222354;1261;25268;-47
2023/06/11 19:27:28;;;;;;;5.80;2.00;;;24.40;42.50;;;;;;222497;1257;22521;-46
2023/06/11 19:32:32;;;;;;;3.80;1.80;;;24.70;42.70;;;;;;222684;1260;22525;-47
2023/06/11 19:37:36;;;;;;;4.60;2.20;;;24.80;44.90;;;;;;222519;1267;24183;-50
2023/06/11 19:42:41;;;;;;;4.80;2.00;;;24.90;44.90;;;;;;222462;1267;24165;-47
2023/06/11 19:47:46;;;;;;;4.50;2.00;;;25.00;45.80;;;;;;222460;1267;24208;-49
2023/06/11 19:52:51;;;;;;;5.60;2.10;;;25.00;46.00;;;;;;222585;1252;22513;-47
2023/06/11 19:57:56;;;;;;;2.40;2.20;;;25.00;47.00;;;;;;222403;1244;22516;-46
2023/06/11 20:03:00;;;;;;;2.90;1.70;;;25.10;47.00;;;;;;222530;1254;22562;-50
2023/06/11 20:08:05;;;;;;;3.60;1.80;;;25.10;47.30;;;;;;222459;1267;25379;-49
2023/06/11 20:13:09;;;;;;;3.50;1.70;;;25.10;48.40;;;;;;222633;1264;22517;-48
2023/06/11 20:18:14;;;;;;;2.00;1.90;;;25.10;48.60;;;;;;222406;1266;22571;-47
2023/06/11 20:23:18;;;;;;;1.70;1.60;;;25.10;48.90;;;;;;222419;1267;22637;-50
2023/06/11 20:28:23;;;;;;;2.20;1.80;;;25.10;49.20;;;;;;222610;1267;24201;-46
2023/06/11 20:33:27;;;;;;;3.80;1.90;;;25.10;49.70;;;;;;222642;1261;24403;-47
2023/06/11 20:38:31;;;;;;;2.60;2.40;;;25.10;49.90;;;;;;222738;1267;24179;-46
2023/06/11 20:43:35;;;;;;;2.10;1.90;;;25.10;50.30;;;;;;222494;1265;22511;-47
2023/06/11 20:48:40;;;;;;;3.00;1.60;;;25.10;50.60;;;;;;222590;1267;22518;-46
2023/06/11 20:53:44;;;;;;;1.70;1.60;;;25.10;51.00;;;;;;222618;1261;24212;-50
2023/06/11 20:58:51;;;;;;;1.80;1.70;;;25.10;51.10;;;;;;222424;1260;22529;-49
2023/06/11 21:03:56;;;;;;;1.60;1.50;;;25.10;51.60;;;;;;222651;1252;24206;-47
2023/06/11 21:09:01;;;;;;;3.20;2.60;;;25.10;51.50;;;;;;222307;1265;22518;-47
2023/06/11 21:14:05;;;;;;;1.70;1.60;;;25.20;51.70;;;;;;222566;1267;25344;-48
2023/06/11 21:19:17;;;;;;;1.70;1.60;;;25.20;52.10;;;;;;222729;1259;25467;-51
2023/06/11 21:24:21;;;;;;;1.50;1.40;;;25.20;52.20;;;;;;222581;1258;25847;-45
2023/06/11 21:29:26;;;;;;;4.40;1.70;;;25.20;52.30;;;;;;222584;1253;22619;-48
2023/06/11 21:34:30;;;;;;;3.30;1.40;;;25.20;52.80;;;;;;222659;1253;22515;-45
2023/06/11 21:39:34;;;;;;;1.80;1.60;;;25.30;52.80;;;;;;222529;1265;23951;-48
2023/06/11 21:44:39;;;;;;;1.60;1.30;;;25.20;52.90;;;;;;222465;1265;22527;-46
2023/06/11 21:49:43;;;;;;;3.30;1.50;;;25.20;52.80;;;;;;222626;1259;22504;-48
2023/06/11 21:54:48;;;;;;;1.50;1.40;;;25.20;53.30;;;;;;222537;1267;22527;-46
2023/06/11 21:59:52;;;;;;;1.70;1.50;;;25.20;53.60;;;;;;222587;1267;22563;-48
2023/06/11 22:04:56;;;;;;;2.30;1.40;;;25.10;54.30;;;;;;222470;1256;26726;-51
2023/06/11 22:10:00;;;;;;;2.40;1.50;;;25.10;54.50;;;;;;222463;1262;22555;-49
2023/06/11 22:15:06;;;;;;;1.40;1.30;;;25.10;54.80;;;;;;222122;1256;25304;-47
2023/06/11 22:20:11;;;;;;;1.40;1.30;;;25.10;55.40;;;;;;222116;1267;22755;-45
2023/06/11 22:25:15;;;;;;;1.70;1.60;;;25.10;54.80;;;;;;230083;1268;22948;-48
2023/06/11 22:30:19;;;;;;;1.60;1.50;;;25.30;54.80;;;;;;222322;1268;24258;-48
2023/06/11 22:35:24;;;;;;;1.70;1.40;;;25.30;55.20;;;;;;222352;1261;24248;-48
2023/06/11 22:40:28;;;;;;;1.80;1.70;;;25.20;54.60;;;;;;222385;1268;24164;-47
2023/06/11 22:45:33;;;;;;;1.50;1.30;;;25.10;54.40;;;;;;222314;1265;22532;-46
2023/06/11 22:50:38;;;;;;;2.10;1.50;;;25.10;55.10;;;;;;222489;1265;23713;-49
2023/06/11 22:55:42;;;;;;;1.30;1.20;;;25.10;54.90;;;;;;222356;1268;22508;-46
2023/06/11 23:00:47;;;;;;;2.60;1.20;;;25.00;54.80;;;;;;222467;1265;25341;-46
2023/06/11 23:05:51;;;;;;;1.30;1.20;;;25.10;54.90;;;;;;222613;1254;24365;-45
2023/06/11 23:10:55;;;;;;;5.00;1.60;;;25.10;55.10;;;;;;222295;1263;25215;-47
2023/06/11 23:16:00;;;;;;;1.50;1.40;;;25.00;55.00;;;;;;222600;1262;23826;-47
2023/06/11 23:21:05;;;;;;;1.50;1.20;;;25.10;55.10;;;;;;222302;1258;22523;-48
2023/06/11 23:26:09;;;;;;;1.30;1.20;;;25.10;55.60;;;;;;222540;1261;22507;-48
2023/06/11 23:31:14;;;;;;;1.80;1.60;;;25.00;55.30;;;;;;222420;1263;22513;-49
2023/06/11 23:36:18;;;;;;;3.50;1.50;;;25.00;54.90;;;;;;222351;1249;23142;-48
2023/06/11 23:41:22;;;;;;;1.50;1.40;;;25.00;54.90;;;;;;222291;1265;22929;-46
2023/06/11 23:46:26;;;;;;;1.50;1.40;;;25.10;54.90;;;;;;230219;1267;22240;-49
2023/06/11 23:51:32;;;;;;;1.60;1.50;;;25.10;54.50;;;;;;227582;1265;23879;-46
2023/06/11 23:56:36;;;;;;;1.10;1.10;;;25.30;54.70;;;;;;222558;1265;25279;-47
